Time;durP1;ratioP1;P1;durP2;ratioP2;P2;SDS_P1;SDS_P2;PMS_P1;PMS_P2;Temp;Humidity;BMP_temperature;BMP_pressure;BME280_temperature;BME280_humidity;BME280_pressure;Samples;Min_cycle;Max_cycle;Signal;HPM_P1;HPM_P2
2023/07/04 00:01:14;;;;;;;4.60;2.28;;;;;;;;;;4996827;28;20076;-82
2023/07/04 00:03:46;;;;;;;3.53;2.50;;;;;;;;;;4995151;28;20026;-83
2023/07/04 00:06:18;;;;;;;4.45;2.53;;;;;;;;;;4978522;28;20547;-82
2023/07/04 00:08:45;;;;;;;3.70;2.03;;;;;;;;;;4975148;28;20355;-82
2023/07/04 00:11:15;;;;;;;3.70;2.03;;;;;;;;;;4953367;28;20058;-82
2023/07/04 00:13:41;;;;;;;4.83;2.27;;;;;;;;;;4997756;28;20026;-82
2023/07/04 00:16:09;;;;;;;5.28;2.30;;;;;;;;;;4975935;28;20045;-82
2023/07/04 00:18:38;;;;;;;3.90;2.60;;;;;;;;;;4979397;28;20011;-80
2023/07/04 00:21:11;;;;;;;5.18;2.35;;;;;;;;;;4995433;28;20096;-83
2023/07/04 00:23:37;;;;;;;6.18;2.28;;;;;;;;;;4994539;28;20009;-81
2023/07/04 00:26:06;;;;;;;6.10;2.72;;;;;;;;;;4990932;28;20025;-82
2023/07/04 00:28:33;;;;;;;4.63;2.38;;;;;;;;;;4991627;28;20018;-80
2023/07/04 00:31:03;;;;;;;4.45;2.40;;;;;;;;;;4980759;28;20034;-82
2023/07/04 00:33:30;;;;;;;6.07;2.53;;;;;;;;;;4969301;28;20061;-81
2023/07/04 00:36:05;;;;;;;3.90;2.15;;;16.60;99.90;;;;;;4997324;28;20023;-81
2023/07/04 00:38:32;;;;;;;4.35;2.30;;;;;;;;;;4997127;28;20394;-82
2023/07/04 00:41:03;;;;;;;4.45;2.35;;;;;;;;;;4964073;28;20462;-83
2023/07/04 00:44:30;;;;;;;;;;;16.60;99.90;;;;;;4993973;28;20026;-82
2023/07/04 00:50:07;;;;;;;6.32;2.60;;;;;;;;;;4992323;28;20097;-80
2023/07/04 00:52:35;;;;;;;3.63;2.10;;;;;;;;;;4968244;28;20034;-80
2023/07/04 00:55:08;;;;;;;5.72;2.28;;;;;;;;;;4989624;28;20474;-81
2023/07/04 00:57:54;;;;;;;3.35;2.20;;;;;;;;;;5004889;28;20034;-81
2023/07/04 01:00:23;;;;;;;6.35;2.38;;;;;;;;;;4999542;28;20023;-80
2023/07/04 01:02:54;;;;;;;4.15;2.05;;;;;;;;;;4992864;28;20022;-81
2023/07/04 01:05:45;;;;;;;3.60;2.15;;;;;;;;;;5002886;28;20041;-82
2023/07/04 01:08:24;;;;;;;3.95;2.38;;;;;;;;;;5014279;28;20022;-83
2023/07/04 01:10:50;;;;;;;4.37;2.33;;;;;;;;;;4985844;28;20022;-81
2023/07/04 01:13:34;;;;;;;3.97;2.22;;;;;;;;;;4987521;28;20435;-81
2023/07/04 01:16:10;;;;;;;4.45;2.40;;;;;;;;;;4982661;28;20025;-82
2023/07/04 01:18:39;;;;;;;4.53;2.38;;;;;;;;;;4982660;28;20524;-80
2023/07/04 01:21:07;;;;;;;4.55;2.30;;;;;;;;;;4980070;28;20026;-80
2023/07/04 01:23:33;;;;;;;4.25;2.42;;;;;;;;;;5010167;28;20022;-81
2023/07/04 01:26:02;;;;;;;5.03;2.40;;;;;;;;;;4999580;28;20022;-79
2023/07/04 01:28:29;;;;;;;5.53;2.50;;;;;;;;;;4979147;28;20027;-81
2023/07/04 01:30:58;;;;;;;5.65;2.65;;;;;;;;;;5008163;28;20029;-82
2023/07/04 01:33:55;;;;;;;4.32;2.53;;;;;;;;;;4980456;28;20486;-82
2023/07/04 01:36:24;;;;;;;7.38;2.47;;;;;;;;;;4984600;28;20018;-83
2023/07/04 01:38:51;;;;;;;5.80;2.83;;;;;;;;;;5000167;28;20022;-81
2023/07/04 01:41:17;;;;;;;5.95;2.92;;;;;;;;;;5014452;28;20030;-81
2023/07/04 01:43:48;;;;;;;6.43;2.50;;;;;;;;;;4992657;28;20065;-82
2023/07/04 01:46:15;;;;;;;7.53;2.63;;;;;;;;;;5000698;28;20027;-80
2023/07/04 01:48:41;;;;;;;5.80;2.70;;;;;;;;;;4982276;28;20018;-81
2023/07/04 01:51:07;;;;;;;4.75;2.70;;;;;;;;;;4995959;28;20022;-80
2023/07/04 01:53:33;;;;;;;5.03;2.45;;;;;;;;;;4977075;28;20018;-81
2023/07/04 01:55:59;;;;;;;5.40;2.58;;;;;;;;;;4991126;28;20030;-81
2023/07/04 01:58:29;;;;;;;5.25;2.40;;;;;;;;;;4963274;28;20027;-81
2023/07/04 02:00:55;;;;;;;9.40;2.90;;;;;;;;;;4963049;28;20050;-82
2023/07/04 02:03:28;;;;;;;6.35;2.90;;;;;;;;;;4968958;28;20110;-81
2023/07/04 02:05:57;;;;;;;5.80;2.85;;;;;;;;;;4980540;28;20496;-82
2023/07/04 02:08:23;;;;;;;4.32;3.08;;;;;;;;;;4984329;28;20053;-82
2023/07/04 02:10:55;;;;;;;5.20;2.70;;;;;;;;;;4993853;28;20018;-81
2023/07/04 02:19:33;;;;;;;5.60;2.70;;;15.50;99.90;;;;;;5013299;28;20034;-81
2023/07/04 02:22:02;;;;;;;4.53;2.78;;;;;;;;;;4991007;28;20021;-82
2023/07/04 02:24:29;;;;;;;6.68;2.58;;;;;;;;;;4962814;28;20023;-82
2023/07/04 02:26:55;;;;;;;6.00;3.03;;;;;;;;;;5004734;28;20427;-80
2023/07/04 02:29:23;;;;;;;9.75;3.30;;;;;;;;;;4982584;28;20056;-81
2023/07/04 02:32:22;;;;;;;6.63;2.88;;;15.40;99.90;;;;;;5015995;28;20022;-82
2023/07/04 02:34:48;;;;;;;4.22;2.70;;;;;;;;;;4998182;28;20068;-80
2023/07/04 02:37:24;;;;;;;9.23;2.90;;;;;;;;;;4983992;28;20042;-80
2023/07/04 02:39:51;;;;;;;7.43;3.20;;;;;;;;;;4981421;28;20117;-80
2023/07/04 02:42:17;;;;;;;6.13;3.15;;;;;;;;;;4965779;28;20023;-80
2023/07/04 02:44:53;;;;;;;4.60;2.88;;;;;;;;;;4998779;28;20018;-82
2023/07/04 02:47:23;;;;;;;4.07;2.60;;;;;;;;;;4962283;28;20034;-80
2023/07/04 02:50:06;;;;;;;5.45;2.90;;;;;;;;;;4994936;28;20084;-83
2023/07/04 02:52:35;;;;;;;5.00;2.58;;;;;;;;;;4999576;28;20018;-82
2023/07/04 02:55:01;;;;;;;6.82;2.97;;;;;;;;;;4981497;28;20117;-81
2023/07/04 02:57:28;;;;;;;6.93;2.95;;;;;;;;;;4977198;28;20019;-81
2023/07/04 02:59:56;;;;;;;5.10;3.28;;;;;;;;;;4979776;28;20101;-81
2023/07/04 03:05:28;;;;;;;4.78;2.55;;;;;;;;;;4939977;28;20038;-82
2023/07/04 03:07:55;;;;;;;5.53;2.55;;;;;;;;;;4984017;28;20019;-82
2023/07/04 03:10:22;;;;;;;5.78;3.05;;;;;;;;;;4979401;28;20027;-82
2023/07/04 03:12:49;;;;;;;10.52;4.15;;;;;;;;;;4979844;28;20088;-82
2023/07/04 03:15:15;;;;;;;5.15;3.03;;;;;;;;;;4987033;28;20068;-82
2023/07/04 03:17:44;;;;;;;5.35;2.90;;;;;;;;;;5009158;28;20105;-83
2023/07/04 03:20:28;;;;;;;5.45;3.25;;;;;;;;;;4968286;28;20029;-82
2023/07/04 03:22:54;;;;;;;9.10;3.20;;;;;;;;;;5009857;28;20018;-83
2023/07/04 03:25:31;;;;;;;7.38;3.72;;;;;;;;;;4984526;28;20030;-82
2023/07/04 03:27:58;;;;;;;5.22;3.10;;;;;;;;;;5025319;28;20022;-82
2023/07/04 03:30:25;;;;;;;6.57;3.60;;;;;;;;;;4991565;28;20026;-83
2023/07/04 03:36:17;;;;;;;8.98;3.63;;;;;;;;;;5016870;28;20074;-83
2023/07/04 03:38:43;;;;;;;8.40;3.78;;;;;;;;;;5020924;28;20022;-83
2023/07/04 04:01:51;;;;;;;6.82;3.28;;;;;;;;;;5022740;28;20539;-82
2023/07/04 04:04:17;;;;;;;7.13;2.88;;;;;;;;;;5010943;28;20014;-80
2023/07/04 04:06:51;;;;;;;4.93;2.92;;;;;;;;;;5002896;28;20017;-81
2023/07/04 04:09:18;;;;;;;6.25;3.33;;;;;;;;;;5010864;28;20025;-80
2023/07/04 04:11:45;;;;;;;7.32;3.30;;;;;;;;;;5012538;28;20029;-81
2023/07/04 04:14:12;;;;;;;9.35;3.47;;;;;;;;;;4992605;28;20014;-82
2023/07/04 04:55:38;;;;;;;8.40;3.55;;;;;;;;;;5000370;28;20047;-80
2023/07/04 04:58:13;;;;;;;7.45;3.53;;;;;;;;;;4985870;28;20027;-81
2023/07/04 05:00:40;;;;;;;7.72;4.05;;;;;;;;;;5002533;28;20435;-81
2023/07/04 05:03:06;;;;;;;9.02;3.85;;;;;;;;;;4986205;28;20038;-79
2023/07/04 05:05:32;;;;;;;6.63;3.75;;;;;;;;;;4980470;28;20093;-79
2023/07/04 05:07:58;;;;;;;6.20;3.38;;;;;;;;;;4979319;28;20033;-80
2023/07/04 05:10:25;;;;;;;9.40;3.67;;;;;;;;;;4975563;28;20061;-79
2023/07/04 05:12:57;;;;;;;7.22;3.38;;;;;;;;;;4988543;28;20023;-79
2023/07/04 05:15:25;;;;;;;6.00;3.50;;;;;;;;;;4996755;28;20031;-81
2023/07/04 05:17:52;;;;;;;7.82;3.58;;;;;;;;;;5006232;28;20022;-79
2023/07/04 05:20:23;;;;;;;9.05;3.92;;;;;;;;;;4996912;28;20026;-79
2023/07/04 05:22:49;;;;;;;11.95;3.60;;;;;;;;;;4999318;28;20030;-78
2023/07/04 05:25:19;;;;;;;12.63;3.78;;;;;;;;;;4979171;28;20027;-81
2023/07/04 05:27:45;;;;;;;9.23;3.53;;;;;;;;;;4973323;28;20142;-82
2023/07/04 05:30:13;;;;;;;9.60;3.72;;;;;;;;;;4986858;28;20034;-78
2023/07/04 05:32:53;;;;;;;8.82;3.65;;;;;;;;;;5006083;28;20027;-86
2023/07/04 05:35:23;;;;;;;11.43;3.95;;;;;;;;;;4990227;28;20034;-79
2023/07/04 05:37:49;;;;;;;10.88;3.83;;;;;;;;;;4994875;28;20038;-81
2023/07/04 05:40:16;;;;;;;9.82;3.55;;;;;;;;;;4994352;28;20085;-82
2023/07/04 05:42:48;;;;;;;11.50;3.88;;;;;;;;;;4996179;28;20026;-85
2023/07/04 05:45:15;;;;;;;10.45;3.80;;;;;;;;;;5002238;28;20038;-84
2023/07/04 05:47:46;;;;;;;12.23;3.58;;;;;;;;;;5013828;28;20071;-81
2023/07/04 05:50:13;;;;;;;8.48;3.85;;;;;;;;;;5009512;28;20085;-81
2023/07/04 05:52:39;;;;;;;8.73;3.67;;;;;;;;;;4982157;28;20030;-79
2023/07/04 05:55:05;;;;;;;10.10;3.55;;;;;;;;;;4977506;28;20084;-79
2023/07/04 05:57:32;;;;;;;8.32;3.40;;;19.70;99.90;;;;;;4990951;28;20046;-80
2023/07/04 05:59:58;;;;;;;8.10;3.50;;;;;;;;;;4975356;28;20027;-80
2023/07/04 06:02:24;;;;;;;8.68;3.45;;;;;;;;;;4977407;28;20534;-79
2023/07/04 06:04:54;;;;;;;7.80;3.65;;;;;;;;;;5004552;28;20133;-78
2023/07/04 06:07:22;;;;;;;8.30;3.75;;;;;;;;;;4995745;28;20031;-80
2023/07/04 06:09:48;;;;;;;11.25;3.47;;;;;;;;;;4993732;28;20539;-79
2023/07/04 06:12:15;;;;;;;11.25;3.60;;;;;;;;;;4976465;28;20087;-80
2023/07/04 06:14:41;;;;;;;9.48;3.55;;;;;;;;;;4971399;28;20056;-80
2023/07/04 06:17:07;;;;;;;9.63;3.20;;;;;;;;;;4971711;28;20033;-80
2023/07/04 06:19:35;;;;;;;11.32;3.33;;;18.80;99.90;;;;;;4975878;28;20456;-80
2023/07/04 06:22:08;;;;;;;9.45;2.85;;;19.00;99.90;;;;;;4983289;28;20648;-80
2023/07/04 06:24:36;;;;;;;10.43;3.08;;;;;;;;;;4983380;28;20133;-80
2023/07/04 06:27:04;;;;;;;8.02;2.83;;;;;;;;;;5000780;28;20042;-79
2023/07/04 06:29:31;;;;;;;10.02;3.20;;;;;;;;;;4973628;28;20326;-78
2023/07/04 06:32:13;;;;;;;7.63;2.85;;;18.70;99.90;;;;;;4991224;28;20038;-78
2023/07/04 06:38:38;;;;;;;10.63;3.55;;;;;;;;;;4924268;28;20108;-79
2023/07/04 06:41:08;;;;;;;7.63;2.83;;;19.20;99.90;;;;;;4975983;28;20030;-79
2023/07/04 06:43:35;;;;;;;8.80;3.30;;;;;;;;;;4997463;28;20632;-79
2023/07/04 06:46:01;;;;;;;13.88;3.08;;;;;;;;;;4976428;28;20077;-79
2023/07/04 06:48:30;;;;;;;11.95;3.47;;;19.80;99.90;;;;;;4973152;28;20761;-79
2023/07/04 06:50:56;;;;;;;11.30;3.47;;;;;;;;;;4985226;28;20026;-79
2023/07/04 06:53:23;;;;;;;7.82;2.63;;;;;;;;;;4993888;28;20100;-80
2023/07/04 06:55:50;;;;;;;7.57;3.05;;;;;;;;;;4968931;28;20033;-80
2023/07/04 06:58:17;;;;;;;8.68;2.90;;;20.20;99.90;;;;;;4974480;28;20496;-79
2023/07/04 07:00:44;;;;;;;10.68;3.15;;;;;;;;;;4972165;28;20031;-79
2023/07/04 07:10:36;;;;;;;14.05;3.38;;;20.00;99.90;;;;;;4999813;28;20592;-81
2023/07/04 07:16:14;;;;;;;11.82;3.28;;;;;;;;;;4988847;28;20049;-81
2023/07/04 07:18:44;;;;;;;9.38;2.90;;;;;;;;;;4980580;28;20027;-82
2023/07/04 07:21:18;;;;;;;8.10;2.90;;;;;;;;;;5008411;28;20145;-82
2023/07/04 07:24:01;;;;;;;11.18;2.92;;;;;;;;;;4997756;28;20035;-82
2023/07/04 07:26:40;;;;;;;11.40;2.42;;;;;;;;;;4988663;28;20503;-81
2023/07/04 07:29:39;;;;;;;7.55;2.90;;;19.90;99.90;;;;;;4990364;28;20043;-82
2023/07/04 07:32:52;;;;;;;6.90;2.72;;;;;;;;;;4928623;29;20036;-84
2023/07/04 07:35:39;;;;;;;9.35;2.80;;;;;;;;;;5008295;28;20030;-86
2023/07/04 07:38:12;;;;;;;8.77;2.60;;;;;;;;;;4998151;28;20027;-86
2023/07/04 07:40:40;;;;;;;6.90;2.50;;;;;;;;;;5067653;23;20046;-82
2023/07/04 07:43:06;;;;;;;7.32;2.53;;;;;;;;;;4996978;28;20022;-81
2023/07/04 07:45:32;;;;;;;9.48;3.20;;;;;;;;;;4992366;28;20025;-83
2023/07/04 07:47:58;;;;;;;7.82;2.45;;;;;;;;;;4967099;28;20094;-82
2023/07/04 07:50:24;;;;;;;8.93;2.50;;;;;;;;;;4972918;28;20050;-82
2023/07/04 07:52:51;;;;;;;9.05;2.65;;;;;;;;;;4984756;28;20026;-81
2023/07/04 07:55:17;;;;;;;8.25;2.53;;;;;;;;;;4999449;28;20073;-81
2023/07/04 07:57:43;;;;;;;8.93;2.85;;;;;;;;;;4966041;28;20094;-81
2023/07/04 08:00:09;;;;;;;8.07;2.80;;;;;;;;;;4970920;28;20015;-80
2023/07/04 08:02:35;;;;;;;7.13;2.90;;;;;;;;;;4971664;28;20094;-82
2023/07/04 08:05:01;;;;;;;7.88;2.58;;;;;;;;;;4967765;28;20018;-81
2023/07/04 08:07:27;;;;;;;6.75;2.55;;;;;;;;;;4985083;28;20023;-82
2023/07/04 08:09:54;;;;;;;9.32;2.58;;;;;;;;;;4985392;28;20019;-81
2023/07/04 08:12:20;;;;;;;8.70;2.50;;;;;;;;;;4969143;28;20021;-80
2023/07/04 08:14:46;;;;;;;7.65;2.47;;;;;;;;;;4979400;28;20014;-80
2023/07/04 08:17:12;;;;;;;8.43;2.60;;;;;;;;;;4968064;28;20105;-82
2023/07/04 08:19:38;;;;;;;7.85;2.67;;;;;;;;;;4983840;28;20022;-82
2023/07/04 08:22:04;;;;;;;6.63;2.60;;;;;;;;;;4967035;28;20030;-80
2023/07/04 08:24:43;;;;;;;8.85;2.72;;;;;;;;;;5007014;23;20066;-81
2023/07/04 08:27:10;;;;;;;8.93;2.80;;;;;;;;;;5000239;28;20115;-81
2023/07/04 08:30:05;;;;;;;6.70;2.65;;;;;;;;;;5002585;28;20072;-83
2023/07/04 08:33:07;;;;;;;7.40;2.72;;;;;;;;;;4998567;28;20034;-81
2023/07/04 09:55:19;;;;;;;;;;;;;;;;;;;;;
2023/07/04 09:57:50;;;;;;;7.32;3.25;;;;;;;;;;4981844;28;21521;-81
2023/07/04 10:00:36;;;;;;;8.88;3.08;;;;;;;;;;5001061;28;20026;-87
2023/07/04 10:03:16;;;;;;;6.40;3.08;;;;;;;;;;5023319;23;20123;-82
2023/07/04 10:05:56;;;;;;;8.88;3.10;;;;;;;;;;4985708;28;20022;-82
2023/07/04 11:26:08;;;;;;;7.10;3.83;;;;;;;;;;4993968;28;20038;-81
2023/07/04 11:28:37;;;;;;;8.48;3.45;;;;;;;;;;4976341;28;20046;-81
2023/07/04 11:31:34;;;;;;;8.27;3.42;;;;;;;;;;4980510;28;20027;-82
2023/07/04 11:34:22;;;;;;;9.05;3.40;;;;;;;;;;4905380;29;20027;-81
2023/07/04 11:40:16;;;;;;;7.30;3.33;;;;;;;;;;4952570;29;20038;-82
2023/07/04 11:43:00;;;;;;;6.47;3.33;;;;;;;;;;4962914;28;20031;-82
2023/07/04 11:45:36;;;;;;;6.68;2.83;;;;;;;;;;4948750;29;20063;-83
2023/07/04 11:48:28;;;;;;;5.50;2.97;;;;;;;;;;4933440;29;20027;-81
2023/07/04 11:51:22;;;;;;;9.77;3.22;;;;;;;;;;4966866;28;20387;-82
2023/07/04 11:54:23;;;;;;;7.07;3.60;;;;;;;;;;4967542;29;20039;-82
2023/07/04 11:57:03;;;;;;;11.45;3.53;;;;;;;;;;4950935;29;20031;-82
2023/07/04 12:02:54;;;;;;;8.13;3.65;;;;;;;;;;4894275;29;20045;-82
2023/07/04 12:05:41;;;;;;;11.52;3.47;;;;;;;;;;4972127;28;20046;-82
2023/07/04 12:08:11;;;;;;;7.00;3.17;;;;;;;;;;4959255;28;20103;-83
2023/07/04 12:10:40;;;;;;;9.57;3.25;;;;;;;;;;4978279;28;20061;-82
2023/07/04 12:13:07;;;;;;;8.75;3.13;;;;;;;;;;4972753;28;20043;-83
2023/07/04 12:15:53;;;;;;;8.50;3.13;;;;;;;;;;4972583;28;20027;-82
2023/07/04 12:18:26;;;;;;;8.60;3.45;;;;;;;;;;4968613;29;20027;-83
2023/07/04 12:20:53;;;;;;;8.68;3.55;;;;;;;;;;4947703;29;20201;-82
2023/07/04 12:23:22;;;;;;;8.27;3.20;;;;;;;;;;4962132;29;20031;-81
2023/07/04 12:25:56;;;;;;;6.20;3.47;;;;;;;;;;4965435;28;20043;-83
2023/07/04 12:28:39;;;;;;;6.53;3.13;;;;;;;;;;4972571;28;20042;-81
2023/07/04 12:31:14;;;;;;;7.28;3.17;;;;;;;;;;4956550;29;20039;-83
2023/07/04 12:33:52;;;;;;;6.35;3.08;;;;;;;;;;4957293;29;20035;-84
2023/07/04 12:36:27;;;;;;;6.32;3.33;;;;;;;;;;4973860;28;20062;-81
2023/07/04 12:39:02;;;;;;;9.60;3.28;;;;;;;;;;4973879;28;20091;-83
2023/07/04 12:41:30;;;;;;;8.90;3.42;;;;;;;;;;4968796;28;20091;-83
2023/07/04 12:44:00;;;;;;;5.32;3.08;;;;;;;;;;4973598;29;20034;-82
2023/07/04 12:46:27;;;;;;;;;;;25.90;76.10;;;;;;4969646;29;20023;-82
2023/07/04 12:49:00;;;;;;;7.15;3.42;;;;;;;;;;4953212;29;19961;-83
2023/07/04 12:51:29;;;;;;;6.47;3.10;;;;;;;;;;4954143;29;20028;-82
2023/07/04 12:57:49;;;;;;;;;;;25.80;76.80;;;;;;4956851;28;20103;-81
2023/07/04 13:00:41;;;;;;;7.35;3.15;;;;;;;;;;4837104;29;19912;-83
2023/07/04 13:16:28;;;;;;;;;;;;;;;;;;;;;
2023/07/04 13:22:52;;;;;;;7.15;3.40;;;26.60;73.40;;;;;;4857257;29;20161;-81
2023/07/04 13:33:07;;;;;;;5.47;3.38;;;;;;;;;;4776795;30;20458;-81
2023/07/04 14:37:52;;;;;;;7.03;3.25;;;;;;;;;;5016919;26;20038;-83
2023/07/04 14:41:01;;;;;;;8.65;3.58;;;;;;;;;;5014451;28;20022;-83
2023/07/04 14:49:18;;;;;;;9.63;3.80;;;;;;;;;;5156905;23;20034;-81
2023/07/04 14:52:34;;;;;;;9.07;3.70;;;;;;;;;;4934956;29;20036;-82
2023/07/04 15:09:07;;;;;;;7.00;3.25;;;;;;;;;;5527441;23;20067;-81
2023/07/04 15:53:26;;;;;;;6.10;3.40;;;;;;;;;;4976200;28;20070;-81
2023/07/04 15:56:07;;;;;;;7.00;3.25;;;26.50;72.60;;;;;;4964324;28;20034;-81
2023/07/04 15:58:34;;;;;;;6.30;2.97;;;;;;;;;;4948650;29;20059;-80
2023/07/04 16:01:02;;;;;;;9.57;2.80;;;;;;;;;;4950072;29;20042;-80
2023/07/04 16:03:30;;;;;;;5.72;3.42;;;;;;;;;;4962016;29;20486;-80
2023/07/04 16:05:57;;;;;;;6.22;2.90;;;;;;;;;;4951677;29;20032;-80
2023/07/04 16:08:23;;;;;;;9.75;2.28;;;;;;;;;;4948004;29;20028;-80
2023/07/04 16:11:05;;;;;;;7.07;2.45;;;;;;;;;;4933340;29;20103;-81
2023/07/04 16:13:32;;;;;;;7.93;2.22;;;;;;;;;;4941535;29;20062;-79
2023/07/04 16:16:01;;;;;;;6.15;2.08;;;;;;;;;;4925776;29;20091;-79
2023/07/04 16:18:36;;;;;;;10.18;2.58;;;;;;;;;;4935560;29;20078;-81
2023/07/04 16:21:05;;;;;;;5.35;2.30;;;;;;;;;;4929727;29;20031;-79
2023/07/04 16:23:40;;;;;;;7.55;2.72;;;;;;;;;;4928701;29;20055;-78
2023/07/04 16:26:07;;;;;;;13.18;2.45;;;;;;;;;;4929350;29;20123;-80
2023/07/04 16:28:33;;;;;;;4.60;2.10;;;;;;;;;;4946799;29;20368;-80
2023/07/04 16:31:15;;;;;;;4.20;1.90;;;;;;;;;;4944075;28;20031;-81
2023/07/04 16:33:48;;;;;;;4.60;2.00;;;;;;;;;;4927989;29;20038;-79
2023/07/04 16:36:15;;;;;;;4.40;1.60;;;;;;;;;;4924185;29;20060;-78
2023/07/04 16:38:41;;;;;;;6.43;2.20;;;;;;;;;;4922430;29;20394;-80
2023/07/04 16:41:09;;;;;;;3.83;1.65;;;;;;;;;;4932582;29;20032;-79
2023/07/04 16:43:35;;;;;;;4.20;1.63;;;;;;;;;;4936196;29;20036;-79
2023/07/04 16:46:01;;;;;;;3.58;1.67;;;;;;;;;;4946692;29;20031;-79
2023/07/04 16:48:27;;;;;;;5.15;1.70;;;;;;;;;;4920792;29;20055;-79
2023/07/04 16:50:57;;;;;;;4.43;1.85;;;;;;;;;;4944740;29;20271;-80
2023/07/04 16:53:23;;;;;;;3.50;1.60;;;;;;;;;;4920872;29;20072;-80
2023/07/04 16:55:55;;;;;;;4.13;1.27;;;;;;;;;;4937806;29;20123;-80
2023/07/04 16:58:24;;;;;;;2.15;1.00;;;;;;;;;;4922280;29;20046;-79
2023/07/04 17:00:50;;;;;;;3.58;1.42;;;;;;;;;;4919167;29;20055;-79
2023/07/04 17:03:16;;;;;;;3.53;1.75;;;;;;;;;;4937832;29;20028;-81
2023/07/04 17:05:47;;;;;;;1.95;1.20;;;;;;;;;;4932219;29;20040;-80
2023/07/04 17:08:16;;;;;;;2.28;1.27;;;;;;;;;;4922998;29;20075;-80
2023/07/04 17:10:46;;;;;;;2.73;1.57;;;;;;;;;;4924393;29;20024;-79
2023/07/04 17:13:13;;;;;;;6.47;1.35;;;;;;;;;;4923719;29;20032;-80
2023/07/04 17:15:39;;;;;;;3.53;1.77;;;;;;;;;;4915340;29;20060;-79
2023/07/04 17:18:05;;;;;;;3.28;1.60;;;;;;;;;;4915285;29;20044;-80
2023/07/04 17:20:31;;;;;;;3.28;1.45;;;;;;;;;;4942894;29;20043;-78
2023/07/04 17:22:57;;;;;;;2.92;1.40;;;;;;;;;;4923214;29;20106;-81
2023/07/04 17:25:23;;;;;;;3.95;2.15;;;;;;;;;;4937854;29;20027;-80
2023/07/04 17:27:49;;;;;;;3.70;1.67;;;;;;;;;;4950716;29;20391;-81
2023/07/04 17:30:25;;;;;;;3.38;1.60;;;;;;;;;;4942928;29;20054;-80
2023/07/04 17:32:51;;;;;;;5.25;1.67;;;;;;;;;;4943712;29;20031;-81
2023/07/04 17:35:17;;;;;;;3.55;1.80;;;;;;;;;;4930899;29;20031;-81
2023/07/04 17:37:44;;;;;;;3.50;1.40;;;;;;;;;;4937692;29;20028;-80
2023/07/04 17:40:10;;;;;;;2.85;1.60;;;;;;;;;;4943810;29;20059;-78
2023/07/04 17:42:36;;;;;;;4.57;1.80;;;;;;;;;;4937201;29;20120;-80
2023/07/04 17:45:02;;;;;;;7.00;2.22;;;;;;;;;;4948631;29;20063;-81
2023/07/04 17:47:29;;;;;;;3.15;1.40;;;;;;;;;;4951237;29;20063;-80
2023/07/04 17:49:55;;;;;;;3.60;2.00;;;;;;;;;;4961776;29;20019;-79
2023/07/04 17:52:22;;;;;;;3.38;1.52;;;;;;;;;;4953252;29;20123;-80
2023/07/04 17:54:48;;;;;;;2.70;1.55;;;;;;;;;;4942746;29;20032;-82
2023/07/04 17:57:14;;;;;;;4.95;2.30;;;;;;;;;;4935782;29;20055;-80
2023/07/04 17:59:45;;;;;;;2.95;1.40;;;;;;;;;;4934151;29;20038;-79
2023/07/04 18:02:15;;;;;;;2.10;1.45;;;;;;;;;;4953106;29;20027;-80
2023/07/04 18:04:42;;;;;;;2.90;1.40;;;;;;;;;;4941090;29;20047;-80
2023/07/04 18:07:09;;;;;;;3.33;1.50;;;;;;;;;;4956161;29;20036;-80
2023/07/04 18:09:37;;;;;;;4.70;1.70;;;;;;;;;;4954463;29;20043;-81
2023/07/04 18:12:05;;;;;;;5.80;1.80;;;;;;;;;;4925281;29;20035;-83
2023/07/04 18:14:33;;;;;;;4.53;1.75;;;;;;;;;;4946982;29;20402;-80
2023/07/04 18:17:00;;;;;;;4.22;1.73;;;;;;;;;;4945815;29;20024;-81
2023/07/04 18:19:28;;;;;;;4.07;2.00;;;;;;;;;;4925792;29;20028;-82
2023/07/04 18:21:55;;;;;;;4.53;2.05;;;;;;;;;;4923743;29;20027;-79
2023/07/04 18:24:23;;;;;;;4.93;2.13;;;;;;;;;;4937996;29;20027;-80
2023/07/04 18:26:49;;;;;;;3.90;1.95;;;;;;;;;;4924183;29;20174;-81
2023/07/04 18:29:15;;;;;;;2.80;1.70;;;;;;;;;;4923983;29;20046;-82
2023/07/04 18:31:41;;;;;;;5.15;2.33;;;;;;;;;;4925506;29;20028;-80
2023/07/04 18:34:07;;;;;;;4.68;2.10;;;;;;;;;;4926237;29;20038;-80
2023/07/04 18:36:35;;;;;;;4.18;1.90;;;;;;;;;;4944293;29;20059;-81
2023/07/04 18:39:02;;;;;;;5.60;2.30;;;;;;;;;;4936105;29;20028;-81
2023/07/04 18:41:30;;;;;;;4.03;2.00;;;;;;;;;;4953433;29;20031;-80
2023/07/04 18:43:56;;;;;;;5.63;1.90;;;;;;;;;;4954484;29;20059;-81
2023/07/04 18:46:27;;;;;;;3.88;2.08;;;;;;;;;;4944845;29;20035;-80
2023/07/04 18:48:53;;;;;;;7.25;1.90;;;;;;;;;;4930521;29;20020;-81
2023/07/04 18:51:24;;;;;;;2.63;1.60;;;;;;;;;;4947841;29;20109;-81
2023/07/04 18:53:50;;;;;;;6.95;2.00;;;;;;;;;;4954090;28;20027;-80
2023/07/04 18:56:17;;;;;;;6.30;1.98;;;;;;;;;;4945999;29;20036;-81
2023/07/04 18:58:43;;;;;;;5.28;2.00;;;;;;;;;;4935553;29;20550;-79
2023/07/04 19:01:13;;;;;;;4.05;1.90;;;;;;;;;;4930136;29;20060;-79
2023/07/04 19:03:41;;;;;;;3.88;2.20;;;;;;;;;;4949143;29;20020;-79
2023/07/04 19:06:08;;;;;;;4.55;2.10;;;;;;;;;;4928657;29;20449;-80
2023/07/04 19:08:34;;;;;;;7.35;2.17;;;;;;;;;;4956141;29;20091;-80
2023/07/04 19:11:00;;;;;;;4.78;2.20;;;;;;;;;;4941158;29;20028;-80
2023/07/04 19:13:29;;;;;;;3.80;2.20;;;20.50;99.90;;;;;;4941672;29;20044;-81
2023/07/04 19:15:56;;;;;;;3.97;2.10;;;;;;;;;;4960559;29;20490;-81
2023/07/04 19:18:22;;;;;;;4.30;2.03;;;;;;;;;;4956005;29;20051;-81
2023/07/04 19:20:55;;;;;;;3.58;1.73;;;;;;;;;;4958372;28;20031;-81
2023/07/04 19:23:21;;;;;;;4.35;2.15;;;;;;;;;;4939459;29;20027;-81
2023/07/04 19:25:47;;;;;;;4.72;3.13;;;;;;;;;;4966796;29;20020;-81
2023/07/04 19:28:14;;;;;;;8.82;5.43;;;;;;;;;;4940767;29;20036;-81
2023/07/04 19:30:55;;;;;;;13.25;8.18;;;;;;;;;;4957144;29;20030;-81
2023/07/04 19:33:21;;;;;;;5.40;2.30;;;;;;;;;;4951097;29;20039;-81
2023/07/04 19:35:47;;;;;;;5.70;2.65;;;;;;;;;;4945945;29;20059;-81
2023/07/04 19:38:13;;;;;;;6.30;2.30;;;;;;;;;;4960446;29;20047;-81
2023/07/04 19:40:39;;;;;;;4.07;2.30;;;;;;;;;;4934269;29;20035;-80
2023/07/04 19:43:05;;;;;;;4.70;2.40;;;;;;;;;;4960033;29;20036;-81
2023/07/04 19:45:31;;;;;;;3.47;2.17;;;;;;;;;;4939757;29;20031;-80
2023/07/04 19:47:58;;;;;;;4.13;2.45;;;;;;;;;;4945755;29;20032;-81
2023/07/04 19:50:24;;;;;;;6.35;2.20;;;;;;;;;;4933078;29;20395;-79
2023/07/04 19:52:50;;;;;;;6.32;2.33;;;;;;;;;;4936513;29;20042;-81
2023/07/04 19:55:17;;;;;;;5.07;2.45;;;;;;;;;;4910806;29;20071;-80
2023/07/04 19:57:46;;;;;;;4.55;3.15;;;;;;;;;;4950667;29;20027;-79
2023/07/04 20:00:15;;;;;;;5.70;2.45;;;;;;;;;;4932781;29;20059;-80
2023/07/04 20:02:42;;;;;;;5.22;2.80;;;;;;;;;;4937470;29;20032;-80
2023/07/04 20:05:10;;;;;;;3.80;2.22;;;;;;;;;;4954719;29;20118;-80
2023/07/04 20:07:36;;;;;;;5.28;2.42;;;;;;;;;;4936280;28;20028;-83
2023/07/04 20:10:09;;;;;;;4.82;2.53;;;;;;;;;;5409343;23;20042;-81
2023/07/04 20:12:56;;;;;;;7.85;2.38;;;;;;;;;;4992910;28;20058;-81
2023/07/04 20:15:22;;;;;;;4.15;2.35;;;;;;;;;;4975957;28;20026;-83
2023/07/04 20:17:48;;;;;;;4.93;2.50;;;;;;;;;;5001745;28;20046;-87
2023/07/04 20:20:14;;;;;;;5.88;2.78;;;;;;;;;;4999398;28;20015;-84
2023/07/04 20:22:40;;;;;;;4.55;2.25;;;;;;;;;;4998814;28;20069;-84
2023/07/04 20:25:07;;;;;;;4.18;2.60;;;;;;;;;;4982117;28;20031;-85
2023/07/04 20:27:33;;;;;;;5.88;2.70;;;;;;;;;;4979167;28;20043;-84
2023/07/04 20:29:59;;;;;;;5.82;2.70;;;;;;;;;;4975961;28;20041;-84
2023/07/04 20:32:25;;;;;;;5.63;2.90;;;;;;;;;;4982597;28;20031;-88
2023/07/04 20:34:52;;;;;;;6.13;2.53;;;;;;;;;;4987633;28;20039;-85
2023/07/04 20:37:19;;;;;;;4.43;2.38;;;;;;;;;;4974182;28;20046;-84
2023/07/04 20:39:45;;;;;;;4.60;2.58;;;;;;;;;;4995615;28;20104;-87
2023/07/04 20:42:11;;;;;;;3.60;2.47;;;;;;;;;;5148359;23;20038;-85
2023/07/04 20:44:37;;;;;;;5.63;2.85;;;;;;;;;;4994655;28;20039;-86
2023/07/04 20:47:05;;;;;;;6.53;3.25;;;;;;;;;;5016620;28;20003;-84
2023/07/04 20:49:32;;;;;;;6.38;2.67;;;;;;;;;;4995007;28;20011;-82
2023/07/04 20:52:00;;;;;;;5.03;2.78;;;;;;;;;;5011493;28;20011;-87
2023/07/04 20:54:26;;;;;;;5.75;2.80;;;;;;;;;;5001171;28;20013;-84
2023/07/04 20:56:55;;;;;;;4.80;2.60;;;;;;;;;;5018242;28;20073;-84
2023/07/04 20:59:23;;;;;;;5.95;2.60;;;;;;;;;;5017453;28;20044;-84
2023/07/04 21:01:50;;;;;;;4.53;2.75;;;;;;;;;;5013907;28;20011;-87
2023/07/04 21:04:17;;;;;;;4.90;2.30;;;;;;;;;;5017028;28;20030;-84
2023/07/04 21:06:43;;;;;;;5.15;2.80;;;;;;;;;;5001524;28;20042;-83
2023/07/04 21:09:17;;;;;;;4.63;2.30;;;;;;;;;;4994861;28;20031;-84
2023/07/04 21:11:44;;;;;;;5.40;2.63;;;;;;;;;;4992978;28;20049;-84
2023/07/04 21:14:10;;;;;;;4.90;2.85;;;;;;;;;;4995666;28;20046;-84
2023/07/04 21:16:36;;;;;;;4.53;2.17;;;;;;;;;;4987307;28;20027;-88
2023/07/04 21:19:04;;;;;;;4.88;2.42;;;;;;;;;;5017506;28;20469;-84
2023/07/04 21:21:30;;;;;;;4.40;2.05;;;;;;;;;;5003417;28;20018;-87
2023/07/04 21:23:56;;;;;;;3.97;2.35;;;;;;;;;;5016192;28;20053;-85
2023/07/04 21:26:23;;;;;;;5.05;2.60;;;;;;;;;;5020718;28;20022;-83
2023/07/04 21:28:49;;;;;;;4.53;2.55;;;;;;;;;;5004255;28;20023;-87
2023/07/04 21:31:15;;;;;;;4.20;2.53;;;;;;;;;;5019268;28;20026;-85
2023/07/04 21:33:41;;;;;;;4.50;2.80;;;;;;;;;;5000705;28;20041;-86
2023/07/04 21:36:11;;;;;;;7.28;3.08;;;;;;;;;;5018116;28;20022;-87
2023/07/04 21:38:38;;;;;;;4.05;2.50;;;;;;;;;;5005050;28;20058;-86
2023/07/04 21:41:05;;;;;;;4.78;2.40;;;;;;;;;;5021814;28;20025;-85
2023/07/04 21:43:31;;;;;;;3.92;2.33;;;;;;;;;;4999919;28;20058;-83